sensor_id;sensor_type;location;lat;lon;timestamp;P1;durP1;ratioP1;P2;durP2;ratioP2
40599;SDS011;26309;50.924;4.754;2023-04-01T00:00:24;6.40;;;1.93;;
40599;SDS011;26309;50.924;4.754;2023-04-01T00:02:50;6.43;;;2.20;;
40599;SDS011;26309;50.924;4.754;2023-04-01T00:05:16;6.17;;;2.00;;
40599;SDS011;26309;50.924;4.754;2023-04-01T00:07:42;7.57;;;1.93;;
40599;SDS011;26309;50.924;4.754;2023-04-01T00:10:09;4.43;;;1.70;;
40599;SDS011;26309;50.924;4.754;2023-04-01T00:12:37;4.63;;;1.80;;
40599;SDS011;26309;50.924;4.754;2023-04-01T00:15:04;5.20;;;2.00;;
40599;SDS011;26309;50.924;4.754;2023-04-01T00:17:32;4.30;;;1.88;;
40599;SDS011;26309;50.924;4.754;2023-04-01T00:19:59;3.87;;;1.77;;
40599;SDS011;26309;50.924;4.754;2023-04-01T00:22:25;3.17;;;1.80;;
40599;SDS011;26309;50.924;4.754;2023-04-01T00:24:52;9.90;;;2.20;;
40599;SDS011;26309;50.924;4.754;2023-04-01T00:27:18;5.07;;;1.87;;
40599;SDS011;26309;50.924;4.754;2023-04-01T00:29:45;8.00;;;2.50;;
40599;SDS011;26309;50.924;4.754;2023-04-01T00:32:12;8.03;;;2.50;;
40599;SDS011;26309;50.924;4.754;2023-04-01T00:34:39;4.32;;;2.00;;
40599;SDS011;26309;50.924;4.754;2023-04-01T00:37:05;8.67;;;2.03;;
40599;SDS011;26309;50.924;4.754;2023-04-01T00:39:32;8.67;;;2.23;;
40599;SDS011;26309;50.924;4.754;2023-04-01T00:41:59;4.70;;;1.97;;
40599;SDS011;26309;50.924;4.754;2023-04-01T00:44:27;7.17;;;2.00;;
40599;SDS011;26309;50.924;4.754;2023-04-01T00:46:55;6.60;;;2.20;;
40599;SDS011;26309;50.924;4.754;2023-04-01T00:49:25;7.47;;;2.17;;
40599;SDS011;26309;50.924;4.754;2023-04-01T00:51:57;5.87;;;1.90;;
40599;SDS011;26309;50.924;4.754;2023-04-01T00:54:25;6.60;;;2.03;;
40599;SDS011;26309;50.924;4.754;2023-04-01T00:56:58;5.67;;;2.07;;
40599;SDS011;26309;50.924;4.754;2023-04-01T00:59:44;6.00;;;1.80;;
40599;SDS011;26309;50.924;4.754;2023-04-01T01:02:13;5.43;;;1.87;;
40599;SDS011;26309;50.924;4.754;2023-04-01T01:04:39;5.20;;;2.07;;
40599;SDS011;26309;50.924;4.754;2023-04-01T01:37:15;5.47;;;2.23;;
40599;SDS011;26309;50.924;4.754;2023-04-01T01:39:44;5.40;;;1.80;;
40599;SDS011;26309;50.924;4.754;2023-04-01T01:42:15;3.47;;;1.77;;
40599;SDS011;26309;50.924;4.754;2023-04-01T01:44:46;5.57;;;1.75;;
40599;SDS011;26309;50.924;4.754;2023-04-01T01:47:13;5.57;;;2.07;;
40599;SDS011;26309;50.924;4.754;2023-04-01T01:49:42;3.28;;;1.77;;
40599;SDS011;26309;50.924;4.754;2023-04-01T01:52:09;9.07;;;2.00;;
40599;SDS011;26309;50.924;4.754;2023-04-01T01:54:36;5.82;;;1.88;;
40599;SDS011;26309;50.924;4.754;2023-04-01T01:57:12;3.00;;;1.77;;
40599;SDS011;26309;50.924;4.754;2023-04-01T01:59:39;4.17;;;2.00;;
40599;SDS011;26309;50.924;4.754;2023-04-01T02:02:08;3.13;;;1.80;;
40599;SDS011;26309;50.924;4.754;2023-04-01T02:04:37;3.30;;;1.73;;
40599;SDS011;26309;50.924;4.754;2023-04-01T02:07:08;4.77;;;2.00;;
40599;SDS011;26309;50.924;4.754;2023-04-01T02:09:49;5.53;;;2.10;;
40599;SDS011;26309;50.924;4.754;2023-04-01T02:12:16;3.70;;;2.20;;
40599;SDS011;26309;50.924;4.754;2023-04-01T02:17:29;7.07;;;2.27;;
40599;SDS011;26309;50.924;4.754;2023-04-01T02:20:01;5.40;;;2.30;;
40599;SDS011;26309;50.924;4.754;2023-04-01T02:22:35;3.40;;;2.40;;
40599;SDS011;26309;50.924;4.754;2023-04-01T02:25:14;4.80;;;1.90;;
40599;SDS011;26309;50.924;4.754;2023-04-01T02:27:46;5.95;;;2.60;;
40599;SDS011;26309;50.924;4.754;2023-04-01T02:30:16;8.37;;;3.00;;
40599;SDS011;26309;50.924;4.754;2023-04-01T02:32:42;4.40;;;2.70;;
40599;SDS011;26309;50.924;4.754;2023-04-01T02:35:10;6.73;;;3.30;;
40599;SDS011;26309;50.924;4.754;2023-04-01T02:37:38;5.37;;;3.00;;
40599;SDS011;26309;50.924;4.754;2023-04-01T02:40:07;6.57;;;3.23;;
40599;SDS011;26309;50.924;4.754;2023-04-01T02:42:36;6.20;;;3.27;;
40599;SDS011;26309;50.924;4.754;2023-04-01T02:45:02;5.80;;;3.30;;
40599;SDS011;26309;50.924;4.754;2023-04-01T02:47:29;6.27;;;3.20;;
40599;SDS011;26309;50.924;4.754;2023-04-01T02:49:55;7.33;;;3.20;;
40599;SDS011;26309;50.924;4.754;2023-04-01T02:52:24;6.27;;;2.90;;
40599;SDS011;26309;50.924;4.754;2023-04-01T02:54:50;5.37;;;2.90;;
40599;SDS011;26309;50.924;4.754;2023-04-01T02:57:16;4.57;;;2.87;;
40599;SDS011;26309;50.924;4.754;2023-04-01T02:59:42;6.23;;;2.67;;
40599;SDS011;26309;50.924;4.754;2023-04-01T03:02:07;8.47;;;2.90;;
40599;SDS011;26309;50.924;4.754;2023-04-01T03:04:33;5.70;;;2.97;;
40599;SDS011;26309;50.924;4.754;2023-04-01T03:06:59;4.77;;;2.87;;
40599;SDS011;26309;50.924;4.754;2023-04-01T03:09:25;5.70;;;2.77;;
40599;SDS011;26309;50.924;4.754;2023-04-01T03:11:51;7.93;;;3.20;;
40599;SDS011;26309;50.924;4.754;2023-04-01T03:14:18;6.83;;;3.23;;
40599;SDS011;26309;50.924;4.754;2023-04-01T03:16:44;9.00;;;3.33;;
40599;SDS011;26309;50.924;4.754;2023-04-01T03:19:10;6.70;;;3.17;;
40599;SDS011;26309;50.924;4.754;2023-04-01T03:21:36;5.73;;;2.97;;
40599;SDS011;26309;50.924;4.754;2023-04-01T03:24:02;5.30;;;2.77;;
40599;SDS011;26309;50.924;4.754;2023-04-01T03:26:28;9.33;;;3.20;;
40599;SDS011;26309;50.924;4.754;2023-04-01T03:28:54;6.23;;;2.90;;
40599;SDS011;26309;50.924;4.754;2023-04-01T03:31:21;10.60;;;3.40;;
40599;SDS011;26309;50.924;4.754;2023-04-01T03:33:47;9.97;;;3.27;;
40599;SDS011;26309;50.924;4.754;2023-04-01T03:36:13;6.67;;;3.07;;
40599;SDS011;26309;50.924;4.754;2023-04-01T03:38:40;8.67;;;3.90;;
40599;SDS011;26309;50.924;4.754;2023-04-01T03:41:07;7.83;;;3.67;;
40599;SDS011;26309;50.924;4.754;2023-04-01T03:43:36;11.80;;;4.57;;
40599;SDS011;26309;50.924;4.754;2023-04-01T03:46:02;9.40;;;4.20;;
40599;SDS011;26309;50.924;4.754;2023-04-01T03:48:28;10.37;;;4.40;;
40599;SDS011;26309;50.924;4.754;2023-04-01T03:50:54;9.43;;;4.90;;
40599;SDS011;26309;50.924;4.754;2023-04-01T03:53:20;12.93;;;4.80;;
40599;SDS011;26309;50.924;4.754;2023-04-01T03:55:46;12.63;;;5.03;;
40599;SDS011;26309;50.924;4.754;2023-04-01T03:58:13;10.53;;;5.50;;
40599;SDS011;26309;50.924;4.754;2023-04-01T04:00:39;9.83;;;5.03;;
40599;SDS011;26309;50.924;4.754;2023-04-01T04:03:05;16.13;;;6.20;;
40599;SDS011;26309;50.924;4.754;2023-04-01T04:05:31;13.03;;;6.23;;
40599;SDS011;26309;50.924;4.754;2023-04-01T04:07:57;12.40;;;6.63;;
40599;SDS011;26309;50.924;4.754;2023-04-01T04:10:23;14.00;;;6.53;;
40599;SDS011;26309;50.924;4.754;2023-04-01T04:12:50;13.43;;;6.77;;
40599;SDS011;26309;50.924;4.754;2023-04-01T04:15:18;14.37;;;6.63;;
40599;SDS011;26309;50.924;4.754;2023-04-01T04:17:45;13.67;;;6.87;;
40599;SDS011;26309;50.924;4.754;2023-04-01T04:20:11;10.50;;;7.07;;
40599;SDS011;26309;50.924;4.754;2023-04-01T04:22:37;15.60;;;7.50;;
40599;SDS011;26309;50.924;4.754;2023-04-01T04:25:03;15.97;;;7.70;;
40599;SDS011;26309;50.924;4.754;2023-04-01T04:27:29;18.70;;;8.90;;
40599;SDS011;26309;50.924;4.754;2023-04-01T04:29:55;15.00;;;8.37;;
40599;SDS011;26309;50.924;4.754;2023-04-01T04:32:22;18.47;;;8.73;;
40599;SDS011;26309;50.924;4.754;2023-04-01T04:34:48;17.27;;;8.27;;
40599;SDS011;26309;50.924;4.754;2023-04-01T04:37:14;22.57;;;9.10;;
40599;SDS011;26309;50.924;4.754;2023-04-01T04:39:40;20.73;;;9.30;;
40599;SDS011;26309;50.924;4.754;2023-04-01T04:42:06;16.73;;;9.67;;
40599;SDS011;26309;50.924;4.754;2023-04-01T04:44:31;17.83;;;9.77;;
40599;SDS011;26309;50.924;4.754;2023-04-01T04:46:57;16.35;;;8.90;;
40599;SDS011;26309;50.924;4.754;2023-04-01T04:49:23;20.33;;;9.90;;
40599;SDS011;26309;50.924;4.754;2023-04-01T04:51:49;18.40;;;8.60;;
40599;SDS011;26309;50.924;4.754;2023-04-01T04:54:15;17.23;;;9.33;;
40599;SDS011;26309;50.924;4.754;2023-04-01T04:56:41;13.97;;;7.63;;
40599;SDS011;26309;50.924;4.754;2023-04-01T04:59:07;11.80;;;6.90;;
40599;SDS011;26309;50.924;4.754;2023-04-01T05:01:32;9.73;;;6.00;;
40599;SDS011;26309;50.924;4.754;2023-04-01T05:03:59;11.07;;;6.00;;
40599;SDS011;26309;50.924;4.754;2023-04-01T05:06:25;9.80;;;5.60;;
40599;SDS011;26309;50.924;4.754;2023-04-01T05:08:54;11.90;;;5.87;;
40599;SDS011;26309;50.924;4.754;2023-04-01T05:11:20;8.57;;;5.57;;
40599;SDS011;26309;50.924;4.754;2023-04-01T05:13:46;9.27;;;6.10;;
40599;SDS011;26309;50.924;4.754;2023-04-01T05:16:14;8.37;;;5.93;;
40599;SDS011;26309;50.924;4.754;2023-04-01T05:18:43;7.10;;;5.67;;
40599;SDS011;26309;50.924;4.754;2023-04-01T05:21:09;12.27;;;5.87;;
40599;SDS011;26309;50.924;4.754;2023-04-01T05:23:38;9.17;;;5.70;;
40599;SDS011;26309;50.924;4.754;2023-04-01T05:26:05;9.33;;;5.67;;
40599;SDS011;26309;50.924;4.754;2023-04-01T05:28:32;6.27;;;5.10;;
40599;SDS011;26309;50.924;4.754;2023-04-01T05:30:58;6.87;;;4.53;;
40599;SDS011;26309;50.924;4.754;2023-04-01T05:33:26;7.30;;;4.70;;
40599;SDS011;26309;50.924;4.754;2023-04-01T05:35:53;7.10;;;3.90;;
40599;SDS011;26309;50.924;4.754;2023-04-01T05:38:19;4.70;;;3.70;;
40599;SDS011;26309;50.924;4.754;2023-04-01T05:40:45;6.00;;;3.77;;
40599;SDS011;26309;50.924;4.754;2023-04-01T05:43:11;5.47;;;3.60;;
40599;SDS011;26309;50.924;4.754;2023-04-01T05:45:37;5.90;;;4.13;;
40599;SDS011;26309;50.924;4.754;2023-04-01T05:48:04;5.97;;;4.10;;
40599;SDS011;26309;50.924;4.754;2023-04-01T05:50:30;5.77;;;3.97;;
40599;SDS011;26309;50.924;4.754;2023-04-01T05:52:56;6.43;;;3.77;;
40599;SDS011;26309;50.924;4.754;2023-04-01T05:55:22;5.70;;;3.40;;
40599;SDS011;26309;50.924;4.754;2023-04-01T05:57:49;5.60;;;2.93;;
40599;SDS011;26309;50.924;4.754;2023-04-01T06:00:15;2.63;;;2.43;;
40599;SDS011;26309;50.924;4.754;2023-04-01T06:02:42;2.90;;;2.37;;
40599;SDS011;26309;50.924;4.754;2023-04-01T06:07:40;2.80;;;2.50;;
40599;SDS011;26309;50.924;4.754;2023-04-01T06:10:31;2.87;;;2.67;;
40599;SDS011;26309;50.924;4.754;2023-04-01T06:13:10;2.70;;;2.50;;
40599;SDS011;26309;50.924;4.754;2023-04-01T06:29:45;4.67;;;3.73;;
40599;SDS011;26309;50.924;4.754;2023-04-01T06:47:27;9.07;;;5.00;;
40599;SDS011;26309;50.924;4.754;2023-04-01T06:58:45;8.43;;;4.47;;
40599;SDS011;26309;50.924;4.754;2023-04-01T07:01:38;6.63;;;3.90;;
40599;SDS011;26309;50.924;4.754;2023-04-01T07:07:01;12.23;;;3.90;;
40599;SDS011;26309;50.924;4.754;2023-04-01T07:09:32;4.80;;;3.53;;
40599;SDS011;26309;50.924;4.754;2023-04-01T07:12:12;5.13;;;3.40;;
40599;SDS011;26309;50.924;4.754;2023-04-01T07:14:46;5.10;;;2.80;;
40599;SDS011;26309;50.924;4.754;2023-04-01T07:23:02;3.03;;;2.03;;
40599;SDS011;26309;50.924;4.754;2023-04-01T07:25:45;4.83;;;2.37;;
40599;SDS011;26309;50.924;4.754;2023-04-01T07:28:17;2.83;;;2.03;;
40599;SDS011;26309;50.924;4.754;2023-04-01T07:30:47;3.13;;;2.67;;
40599;SDS011;26309;50.924;4.754;2023-04-01T07:33:39;2.77;;;2.20;;
40599;SDS011;26309;50.924;4.754;2023-04-01T07:36:27;2.33;;;2.10;;
40599;SDS011;26309;50.924;4.754;2023-04-01T07:50:29;4.27;;;1.97;;
40599;SDS011;26309;50.924;4.754;2023-04-01T08:04:14;2.27;;;1.50;;
40599;SDS011;26309;50.924;4.754;2023-04-01T08:09:43;1.53;;;1.40;;
40599;SDS011;26309;50.924;4.754;2023-04-01T08:15:15;1.40;;;1.30;;
40599;SDS011;26309;50.924;4.754;2023-04-01T08:20:46;1.87;;;1.43;;
40599;SDS011;26309;50.924;4.754;2023-04-01T08:23:17;1.92;;;1.50;;
40599;SDS011;26309;50.924;4.754;2023-04-01T08:26:07;2.20;;;1.52;;
40599;SDS011;26309;50.924;4.754;2023-04-01T08:28:53;1.65;;;1.15;;
40599;SDS011;26309;50.924;4.754;2023-04-01T08:31:30;2.63;;;1.50;;
40599;SDS011;26309;50.924;4.754;2023-04-01T08:34:21;1.63;;;1.33;;
40599;SDS011;26309;50.924;4.754;2023-04-01T08:37:02;2.90;;;1.50;;
40599;SDS011;26309;50.924;4.754;2023-04-01T08:39:42;1.90;;;1.40;;
40599;SDS011;26309;50.924;4.754;2023-04-01T08:42:18;1.85;;;1.45;;
40599;SDS011;26309;50.924;4.754;2023-04-01T08:50:41;1.50;;;1.40;;
40599;SDS011;26309;50.924;4.754;2023-04-01T08:56:17;2.10;;;1.27;;
40599;SDS011;26309;50.924;4.754;2023-04-01T09:04:43;4.10;;;1.37;;
40599;SDS011;26309;50.924;4.754;2023-04-01T09:12:59;1.42;;;1.33;;
40599;SDS011;26309;50.924;4.754;2023-04-01T09:16:02;2.42;;;1.20;;
40599;SDS011;26309;50.924;4.754;2023-04-01T09:24:00;2.25;;;1.48;;
40599;SDS011;26309;50.924;4.754;2023-04-01T09:29:28;1.50;;;1.38;;
40599;SDS011;26309;50.924;4.754;2023-04-01T09:34:51;1.52;;;1.35;;
40599;SDS011;26309;50.924;4.754;2023-04-01T09:37:29;1.55;;;1.35;;
40599;SDS011;26309;50.924;4.754;2023-04-01T09:40:15;1.58;;;1.48;;
40599;SDS011;26309;50.924;4.754;2023-04-01T09:42:45;3.38;;;1.52;;
40599;SDS011;26309;50.924;4.754;2023-04-01T09:51:24;2.03;;;1.92;;
40599;SDS011;26309;50.924;4.754;2023-04-01T10:02:33;2.38;;;2.10;;
40599;SDS011;26309;50.924;4.754;2023-04-01T10:10:47;3.42;;;2.97;;
40599;SDS011;26309;50.924;4.754;2023-04-01T10:29:25;4.93;;;4.00;;
40599;SDS011;26309;50.924;4.754;2023-04-01T10:49:41;4.95;;;3.17;;
40599;SDS011;26309;50.924;4.754;2023-04-01T10:52:12;3.65;;;2.60;;
40599;SDS011;26309;50.924;4.754;2023-04-01T11:29:33;2.58;;;1.52;;
40599;SDS011;26309;50.924;4.754;2023-04-01T11:38:03;3.28;;;1.70;;
40599;SDS011;26309;50.924;4.754;2023-04-01T11:46:44;2.05;;;1.70;;
40599;SDS011;26309;50.924;4.754;2023-04-01T12:05:52;1.92;;;1.75;;
40599;SDS011;26309;50.924;4.754;2023-04-01T12:08:36;1.55;;;1.40;;
40599;SDS011;26309;50.924;4.754;2023-04-01T12:11:26;1.70;;;1.60;;
40599;SDS011;26309;50.924;4.754;2023-04-01T12:14:18;1.50;;;1.40;;
40599;SDS011;26309;50.924;4.754;2023-04-01T12:16:57;1.73;;;1.58;;
40599;SDS011;26309;50.924;4.754;2023-04-01T12:22:43;1.38;;;1.27;;
40599;SDS011;26309;50.924;4.754;2023-04-01T12:25:31;1.50;;;1.40;;
40599;SDS011;26309;50.924;4.754;2023-04-01T12:31:15;2.08;;;1.50;;
40599;SDS011;26309;50.924;4.754;2023-04-01T12:34:04;1.33;;;1.33;;
40599;SDS011;26309;50.924;4.754;2023-04-01T12:37:12;1.60;;;1.00;;
40599;SDS011;26309;50.924;4.754;2023-04-01T12:56:06;2.05;;;1.48;;
40599;SDS011;26309;50.924;4.754;2023-04-01T12:58:43;2.17;;;1.60;;
40599;SDS011;26309;50.924;4.754;2023-04-01T13:20:49;1.55;;;1.20;;
40599;SDS011;26309;50.924;4.754;2023-04-01T13:26:03;1.10;;;1.10;;
40599;SDS011;26309;50.924;4.754;2023-04-01T13:29:04;1.23;;;1.05;;
40599;SDS011;26309;50.924;4.754;2023-04-01T13:37:27;1.92;;;1.20;;
40599;SDS011;26309;50.924;4.754;2023-04-01T13:43:58;1.88;;;1.30;;
40599;SDS011;26309;50.924;4.754;2023-04-01T13:51:49;1.00;;;0.90;;
40599;SDS011;26309;50.924;4.754;2023-04-01T13:54:51;1.55;;;1.13;;
40599;SDS011;26309;50.924;4.754;2023-04-01T14:33:52;3.03;;;2.67;;
40599;SDS011;26309;50.924;4.754;2023-04-01T14:36:43;3.38;;;3.08;;
40599;SDS011;26309;50.924;4.754;2023-04-01T14:50:18;6.35;;;5.75;;
40599;SDS011;26309;50.924;4.754;2023-04-01T14:55:28;7.65;;;6.47;;
40599;SDS011;26309;50.924;4.754;2023-04-01T14:58:08;7.97;;;7.18;;
40599;SDS011;26309;50.924;4.754;2023-04-01T15:03:12;6.65;;;5.45;;
40599;SDS011;26309;50.924;4.754;2023-04-01T15:11:54;6.03;;;5.53;;
40599;SDS011;26309;50.924;4.754;2023-04-01T15:17:27;5.68;;;4.65;;
40599;SDS011;26309;50.924;4.754;2023-04-01T15:28:08;4.90;;;4.50;;
40599;SDS011;26309;50.924;4.754;2023-04-01T15:30:38;6.00;;;5.30;;
40599;SDS011;26309;50.924;4.754;2023-04-01T15:33:36;8.32;;;5.65;;
40599;SDS011;26309;50.924;4.754;2023-04-01T15:36:15;5.95;;;5.35;;
40599;SDS011;26309;50.924;4.754;2023-04-01T15:39:12;6.75;;;5.82;;
40599;SDS011;26309;50.924;4.754;2023-04-01T15:47:04;9.88;;;5.65;;
40599;SDS011;26309;50.924;4.754;2023-04-01T15:49:56;8.32;;;5.53;;
40599;SDS011;26309;50.924;4.754;2023-04-01T15:52:49;6.45;;;5.22;;
40599;SDS011;26309;50.924;4.754;2023-04-01T16:06:16;6.93;;;5.25;;
40599;SDS011;26309;50.924;4.754;2023-04-01T16:08:59;5.45;;;4.70;;
40599;SDS011;26309;50.924;4.754;2023-04-01T16:12:01;4.82;;;4.35;;
40599;SDS011;26309;50.924;4.754;2023-04-01T16:14:59;3.33;;;3.10;;
40599;SDS011;26309;50.924;4.754;2023-04-01T16:29:43;2.80;;;2.58;;
40599;SDS011;26309;50.924;4.754;2023-04-01T16:32:37;3.42;;;3.10;;
40599;SDS011;26309;50.924;4.754;2023-04-01T16:38:12;3.60;;;2.55;;
40599;SDS011;26309;50.924;4.754;2023-04-01T16:40:53;2.63;;;2.42;;
40599;SDS011;26309;50.924;4.754;2023-04-01T16:43:38;4.65;;;2.80;;
40599;SDS011;26309;50.924;4.754;2023-04-01T16:57:02;5.73;;;4.20;;
40599;SDS011;26309;50.924;4.754;2023-04-01T17:02:03;5.93;;;5.43;;
40599;SDS011;26309;50.924;4.754;2023-04-01T17:04:44;5.30;;;4.80;;
40599;SDS011;26309;50.924;4.754;2023-04-01T17:07:26;4.60;;;4.20;;
40599;SDS011;26309;50.924;4.754;2023-04-01T17:16:00;5.23;;;4.73;;
40599;SDS011;26309;50.924;4.754;2023-04-01T17:18:57;5.77;;;4.97;;
40599;SDS011;26309;50.924;4.754;2023-04-01T17:24:21;6.93;;;6.23;;
40599;SDS011;26309;50.924;4.754;2023-04-01T17:51:05;7.63;;;6.83;;
40599;SDS011;26309;50.924;4.754;2023-04-01T18:05:23;7.60;;;6.57;;
40599;SDS011;26309;50.924;4.754;2023-04-01T18:11:18;7.20;;;6.03;;
40599;SDS011;26309;50.924;4.754;2023-04-01T18:22:41;7.17;;;6.53;;
40599;SDS011;26309;50.924;4.754;2023-04-01T18:25:26;6.73;;;6.13;;
40599;SDS011;26309;50.924;4.754;2023-04-01T18:30:54;11.47;;;7.67;;
40599;SDS011;26309;50.924;4.754;2023-04-01T18:34:19;9.00;;;7.93;;
40599;SDS011;26309;50.924;4.754;2023-04-01T18:39:16;9.67;;;7.83;;
40599;SDS011;26309;50.924;4.754;2023-04-01T18:42:01;11.93;;;8.43;;
40599;SDS011;26309;50.924;4.754;2023-04-01T18:44:50;9.80;;;8.17;;
40599;SDS011;26309;50.924;4.754;2023-04-01T18:52:47;13.30;;;8.93;;
40599;SDS011;26309;50.924;4.754;2023-04-01T18:57:50;9.20;;;8.23;;
40599;SDS011;26309;50.924;4.754;2023-04-01T19:00:25;8.20;;;7.50;;
40599;SDS011;26309;50.924;4.754;2023-04-01T19:05:42;9.87;;;8.73;;
40599;SDS011;26309;50.924;4.754;2023-04-01T19:08:14;13.73;;;8.80;;
40599;SDS011;26309;50.924;4.754;2023-04-01T19:27:43;15.40;;;10.90;;
40599;SDS011;26309;50.924;4.754;2023-04-01T19:33:14;17.90;;;12.00;;
40599;SDS011;26309;50.924;4.754;2023-04-01T19:38:37;17.53;;;11.17;;
40599;SDS011;26309;50.924;4.754;2023-04-01T19:46:48;14.90;;;11.23;;
40599;SDS011;26309;50.924;4.754;2023-04-01T19:50:01;15.07;;;10.50;;
40599;SDS011;26309;50.924;4.754;2023-04-01T19:52:36;13.40;;;9.63;;
40599;SDS011;26309;50.924;4.754;2023-04-01T19:58:00;14.50;;;10.10;;
40599;SDS011;26309;50.924;4.754;2023-04-01T20:00:34;14.27;;;10.50;;
40599;SDS011;26309;50.924;4.754;2023-04-01T20:06:20;17.40;;;10.80;;
40599;SDS011;26309;50.924;4.754;2023-04-01T20:09:08;14.87;;;11.03;;
40599;SDS011;26309;50.924;4.754;2023-04-01T20:20:01;17.00;;;11.90;;
40599;SDS011;26309;50.924;4.754;2023-04-01T20:25:13;17.70;;;12.10;;
40599;SDS011;26309;50.924;4.754;2023-04-01T20:27:47;15.33;;;12.53;;
40599;SDS011;26309;50.924;4.754;2023-04-01T20:30:26;16.20;;;12.73;;
40599;SDS011;26309;50.924;4.754;2023-04-01T20:35:44;18.80;;;13.87;;
40599;SDS011;26309;50.924;4.754;2023-04-01T20:44:27;20.17;;;14.73;;
40599;SDS011;26309;50.924;4.754;2023-04-01T20:46:48;21.20;;;15.53;;
40599;SDS011;26309;50.924;4.754;2023-04-01T21:48:36;26.70;;;19.60;;
40599;SDS011;26309;50.924;4.754;2023-04-01T21:59:35;25.40;;;21.00;;
40599;SDS011;26309;50.924;4.754;2023-04-01T22:02:25;27.95;;;22.50;;
40599;SDS011;26309;50.924;4.754;2023-04-01T22:07:53;32.60;;;24.07;;
40599;SDS011;26309;50.924;4.754;2023-04-01T22:18:32;34.63;;;25.27;;
40599;SDS011;26309;50.924;4.754;2023-04-01T22:21:05;32.93;;;24.50;;
40599;SDS011;26309;50.924;4.754;2023-04-01T22:23:57;29.87;;;23.20;;
40599;SDS011;26309;50.924;4.754;2023-04-01T22:26:38;27.97;;;21.47;;
40599;SDS011;26309;50.924;4.754;2023-04-01T22:29:30;26.30;;;20.20;;
40599;SDS011;26309;50.924;4.754;2023-04-01T22:47:52;22.03;;;17.80;;
40599;SDS011;26309;50.924;4.754;2023-04-01T22:50:40;21.90;;;18.23;;
40599;SDS011;26309;50.924;4.754;2023-04-01T22:56:01;22.50;;;18.17;;
40599;SDS011;26309;50.924;4.754;2023-04-01T22:58:33;23.40;;;18.33;;
40599;SDS011;26309;50.924;4.754;2023-04-01T23:01:17;22.67;;;18.20;;
40599;SDS011;26309;50.924;4.754;2023-04-01T23:03:49;20.73;;;16.97;;
40599;SDS011;26309;50.924;4.754;2023-04-01T23:06:51;22.37;;;17.47;;
40599;SDS011;26309;50.924;4.754;2023-04-01T23:09:15;23.63;;;18.23;;
40599;SDS011;26309;50.924;4.754;2023-04-01T23:11:48;21.50;;;17.30;;
40599;SDS011;26309;50.924;4.754;2023-04-01T23:17:11;30.47;;;23.47;;
40599;SDS011;26309;50.924;4.754;2023-04-01T23:22:35;28.17;;;22.37;;
40599;SDS011;26309;50.924;4.754;2023-04-01T23:25:23;27.37;;;21.80;;
40599;SDS011;26309;50.924;4.754;2023-04-01T23:36:12;19.57;;;16.70;;
40599;SDS011;26309;50.924;4.754;2023-04-01T23:38:41;18.43;;;15.67;;
40599;SDS011;26309;50.924;4.754;2023-04-01T23:41:18;17.47;;;14.83;;
40599;SDS011;26309;50.924;4.754;2023-04-01T23:43:52;19.90;;;14.87;;
40599;SDS011;26309;50.924;4.754;2023-04-01T23:46:26;18.90;;;14.90;;
40599;SDS011;26309;50.924;4.754;2023-04-01T23:48:54;17.70;;;14.90;;
40599;SDS011;26309;50.924;4.754;2023-04-01T23:51:27;17.50;;;13.93;;
40599;SDS011;26309;50.924;4.754;2023-04-01T23:56:51;14.80;;;11.50;;
40599;SDS011;26309;50.924;4.754;2023-04-01T23:59:22;13.87;;;9.63;;
